createdAt,value
2022-12-01T00:01:30.886Z,19.50
2022-12-01T00:03:59.020Z,19.50
2022-12-01T00:06:27.298Z,19.50
2022-12-01T00:09:21.328Z,19.50
2022-12-01T00:11:51.601Z,19.40
2022-12-01T00:14:19.713Z,19.50
2022-12-01T00:16:49.223Z,19.50
2022-12-01T00:19:17.808Z,19.30
2022-12-01T00:21:47.084Z,19.20
2022-12-01T00:24:15.357Z,19.30
2022-12-01T00:26:43.431Z,19.30
2022-12-01T00:29:15.338Z,19.40
2022-12-01T00:31:43.585Z,19.50
2022-12-01T00:34:23.494Z,19.50
2022-12-01T00:36:51.871Z,19.40
2022-12-01T00:39:19.939Z,19.40
2022-12-01T00:41:48.027Z,19.50
2022-12-01T00:44:18.702Z,19.20
2022-12-01T00:46:46.757Z,18.80
2022-12-01T00:49:16.866Z,18.40
2022-12-01T00:51:45.106Z,18.00
2022-12-01T00:54:13.422Z,18.00
2022-12-01T00:56:41.725Z,17.50
2022-12-01T00:59:09.895Z,17.10
2022-12-01T01:01:38.011Z,17.10
2022-12-01T01:04:06.552Z,16.90
2022-12-01T01:06:35.979Z,16.60
2022-12-01T01:09:04.131Z,16.40
2022-12-01T01:11:32.226Z,16.50
2022-12-01T01:14:00.665Z,16.80
2022-12-01T01:16:29.217Z,16.90
2022-12-01T01:18:58.296Z,16.70
2022-12-01T01:21:29.051Z,16.20
2022-12-01T01:23:58.509Z,15.90
2022-12-01T01:26:29.286Z,16.10
2022-12-01T01:28:59.173Z,16.00
2022-12-01T01:31:29.075Z,16.30
2022-12-01T01:33:58.202Z,16.40
2022-12-01T01:36:27.531Z,16.60
2022-12-01T01:38:55.931Z,16.60
2022-12-01T01:41:25.459Z,16.60
2022-12-01T01:43:55.400Z,16.70
2022-12-01T01:46:25.643Z,16.70
2022-12-01T01:48:56.020Z,16.80
2022-12-01T01:51:29.217Z,16.80
2022-12-01T01:54:03.599Z,16.70
2022-12-01T01:56:33.554Z,16.30
2022-12-01T01:59:01.930Z,16.00
2022-12-01T02:01:31.258Z,15.50
2022-12-01T02:03:59.618Z,15.30
2022-12-01T02:06:27.760Z,15.80
2022-12-01T02:08:56.045Z,15.80
2022-12-01T02:11:49.375Z,15.90
2022-12-01T02:14:43.824Z,16.10
2022-12-01T02:17:22.710Z,16.10
2022-12-01T02:20:12.419Z,15.80
2022-12-01T02:22:54.592Z,15.50
2022-12-01T02:25:30.683Z,15.60
2022-12-01T02:28:23.937Z,15.90
2022-12-01T02:30:57.873Z,16.00
2022-12-01T02:33:32.028Z,16.30
2022-12-01T02:36:05.580Z,16.60
2022-12-01T02:38:40.777Z,16.50
2022-12-01T02:41:12.846Z,16.60
2022-12-01T02:43:46.688Z,16.50
2022-12-01T02:46:21.857Z,16.60
2022-12-01T02:48:53.366Z,16.50
2022-12-01T02:51:25.738Z,16.50
2022-12-01T02:53:54.327Z,16.90
2022-12-01T02:56:24.227Z,17.30
2022-12-01T02:58:52.712Z,17.20
2022-12-01T03:01:50.780Z,17.00
2022-12-01T03:04:46.127Z,16.40
2022-12-01T03:07:30.099Z,16.00
2022-12-01T03:10:07.266Z,15.90
2022-12-01T03:12:41.440Z,15.60
2022-12-01T03:15:14.228Z,14.90
2022-12-01T03:17:51.185Z,15.40
2022-12-01T03:20:24.906Z,15.70
2022-12-01T03:23:02.178Z,15.40
2022-12-01T03:25:32.346Z,15.20
2022-12-01T03:30:53.623Z,15.00
2022-12-01T03:33:27.921Z,14.90
2022-12-01T03:36:01.835Z,14.70
2022-12-01T03:38:31.903Z,14.70
2022-12-01T03:41:04.125Z,14.60
2022-12-01T03:43:36.979Z,14.60
2022-12-01T03:46:10.596Z,14.30
2022-12-01T03:48:41.126Z,14.90
2022-12-01T03:51:15.948Z,15.10
2022-12-01T03:53:51.427Z,15.50
2022-12-01T03:56:23.310Z,15.60
2022-12-01T03:58:53.669Z,15.70
2022-12-01T04:01:22.316Z,15.90
2022-12-01T04:03:51.837Z,15.60
2022-12-01T04:06:19.935Z,15.20
2022-12-01T04:08:47.929Z,15.50
2022-12-01T04:11:47.891Z,15.30
2022-12-01T04:14:15.941Z,15.30
2022-12-01T04:16:43.965Z,15.50
2022-12-01T04:19:13.472Z,15.40
2022-12-01T04:21:41.427Z,15.60
2022-12-01T04:24:09.809Z,15.70
2022-12-01T04:26:39.099Z,15.60
2022-12-01T04:29:08.912Z,15.20
2022-12-01T04:31:37.519Z,15.20
2022-12-01T04:34:06.471Z,15.10
2022-12-01T04:36:36.253Z,15.40
2022-12-01T04:39:04.728Z,15.20
2022-12-01T04:41:32.677Z,15.10
2022-12-01T04:44:00.613Z,15.10
2022-12-01T04:46:28.769Z,14.90
2022-12-01T04:48:56.796Z,15.00
2022-12-01T04:51:24.803Z,14.70
2022-12-01T04:53:54.078Z,14.80
2022-12-01T04:56:22.366Z,14.80
2022-12-01T04:58:50.295Z,14.90
2022-12-01T05:01:19.275Z,15.10
2022-12-01T05:03:50.108Z,15.30
2022-12-01T05:06:20.354Z,15.30
2022-12-01T05:08:48.724Z,15.50
2022-12-01T05:11:19.300Z,15.40
2022-12-01T05:13:49.461Z,15.00
2022-12-01T05:16:20.559Z,15.10
2022-12-01T05:18:50.430Z,15.50
2022-12-01T05:21:17.908Z,15.80
2022-12-01T05:23:46.431Z,15.70
2022-12-01T05:26:14.474Z,15.40
2022-12-01T05:28:43.775Z,15.00
2022-12-01T05:31:11.777Z,14.60
2022-12-01T05:33:39.824Z,14.80
2022-12-01T05:36:08.354Z,14.70
2022-12-01T05:38:36.345Z,14.70
2022-12-01T05:41:04.305Z,14.70
2022-12-01T05:43:32.371Z,14.80
2022-12-01T05:46:01.711Z,14.70
2022-12-01T05:48:29.718Z,15.20
2022-12-01T05:50:57.682Z,15.10
2022-12-01T05:53:25.658Z,15.10
2022-12-01T05:55:54.763Z,14.80
2022-12-01T05:58:23.071Z,14.70
2022-12-01T06:00:51.066Z,14.50
2022-12-01T06:03:20.364Z,14.30
2022-12-01T06:05:50.130Z,14.10
2022-12-01T06:08:18.133Z,14.40
2022-12-01T06:10:46.923Z,14.60
2022-12-01T06:13:14.862Z,14.50
2022-12-01T06:15:42.841Z,14.60
2022-12-01T06:18:11.072Z,14.60
2022-12-01T06:20:40.434Z,15.00
2022-12-01T06:23:08.822Z,15.10
2022-12-01T06:25:36.767Z,15.00
2022-12-01T06:28:05.044Z,15.10
2022-12-01T06:30:33.061Z,15.10
2022-12-01T06:33:01.042Z,15.30
2022-12-01T06:35:29.051Z,15.10
2022-12-01T06:38:00.382Z,15.30
2022-12-01T06:40:28.549Z,15.50
2022-12-01T06:42:59.830Z,15.40
2022-12-01T06:45:32.293Z,15.00
2022-12-01T06:48:00.438Z,14.50
2022-12-01T06:50:28.378Z,14.10
2022-12-01T06:52:59.336Z,13.60
2022-12-01T06:55:27.396Z,13.20
2022-12-01T06:57:55.718Z,13.30
2022-12-01T07:00:24.185Z,13.50
2022-12-01T07:02:52.166Z,13.60
2022-12-01T07:05:20.167Z,13.70
2022-12-01T07:07:48.227Z,14.10
2022-12-01T07:10:17.580Z,13.90
2022-12-01T07:12:45.519Z,13.70
2022-12-01T07:15:13.489Z,14.30
2022-12-01T07:17:41.486Z,14.70
2022-12-01T07:20:11.304Z,14.70
2022-12-01T07:22:39.910Z,15.10
2022-12-01T07:25:08.728Z,15.20
2022-12-01T07:27:38.011Z,15.40
2022-12-01T07:30:07.369Z,15.10
2022-12-01T07:32:35.442Z,15.20
2022-12-01T07:35:03.402Z,15.20
2022-12-01T07:37:31.801Z,15.10
2022-12-01T07:39:59.788Z,15.10
2022-12-01T07:42:27.726Z,15.30
2022-12-01T07:44:57.057Z,15.30
2022-12-01T07:47:25.056Z,15.50
2022-12-01T07:49:53.027Z,15.60
2022-12-01T07:52:20.955Z,15.70
2022-12-01T07:54:48.885Z,16.10
2022-12-01T07:57:18.150Z,15.60
2022-12-01T07:59:46.279Z,15.70
2022-12-01T08:02:16.145Z,16.00
2022-12-01T08:04:44.270Z,15.60
2022-12-01T08:07:13.472Z,15.80
2022-12-01T08:09:41.389Z,15.70
2022-12-01T08:12:10.326Z,15.50
2022-12-01T08:14:38.748Z,15.30
2022-12-01T08:17:09.078Z,15.20
2022-12-01T08:19:38.432Z,14.80
2022-12-01T08:22:06.356Z,14.20
2022-12-01T08:24:34.356Z,14.20
2022-12-01T08:27:02.282Z,14.10
2022-12-01T08:29:30.234Z,14.30
2022-12-01T08:31:59.039Z,14.30
2022-12-01T08:34:27.281Z,14.80
2022-12-01T08:36:56.591Z,14.80
2022-12-01T08:39:24.517Z,14.60
2022-12-01T08:41:52.513Z,14.10
2022-12-01T08:44:20.469Z,14.50
2022-12-01T08:46:48.536Z,15.10
2022-12-01T08:49:16.626Z,15.10
2022-12-01T08:51:44.663Z,15.10
2022-12-01T08:54:13.953Z,15.20
2022-12-01T08:56:44.262Z,15.00
2022-12-01T08:59:12.435Z,14.70
2022-12-01T09:01:52.001Z,14.20
2022-12-01T09:04:22.057Z,14.60
2022-12-01T09:06:51.790Z,15.20
2022-12-01T09:09:23.232Z,15.60
2022-12-01T09:11:52.186Z,15.90
2022-12-01T09:14:21.407Z,15.10
2022-12-01T09:16:52.725Z,15.20
2022-12-01T09:19:25.033Z,15.30
2022-12-01T09:21:53.603Z,15.50
2022-12-01T09:24:23.183Z,15.20
2022-12-01T09:26:51.607Z,14.70
2022-12-01T09:29:19.589Z,14.70
2022-12-01T09:31:47.602Z,14.80
2022-12-01T09:34:17.794Z,14.90
2022-12-01T09:36:46.557Z,15.20
2022-12-01T09:39:17.193Z,15.40
2022-12-01T09:41:49.773Z,15.50
2022-12-01T09:44:26.255Z,15.70
2022-12-01T09:46:57.134Z,15.30
2022-12-01T09:49:30.356Z,14.90
2022-12-01T09:52:01.222Z,14.70
2022-12-01T09:54:30.563Z,15.00
2022-12-01T09:57:00.507Z,15.40
2022-12-01T09:59:34.109Z,15.70
2022-12-01T10:02:04.629Z,15.60
2022-12-01T10:04:44.025Z,15.40
2022-12-01T10:07:20.683Z,15.40
2022-12-01T10:09:55.331Z,15.40
2022-12-01T10:12:28.698Z,15.50
2022-12-01T10:15:02.774Z,15.10
2022-12-01T10:17:39.476Z,14.70
2022-12-01T10:20:16.201Z,15.10
2022-12-01T10:23:06.684Z,15.50
2022-12-01T10:25:46.081Z,15.10
2022-12-01T10:28:46.656Z,15.10
2022-12-01T10:31:21.738Z,15.00
2022-12-01T10:34:03.225Z,15.50
2022-12-01T10:36:33.600Z,15.40
2022-12-01T10:39:02.233Z,15.30
2022-12-01T10:41:33.492Z,15.20
2022-12-01T10:44:05.814Z,15.00
2022-12-01T10:46:40.201Z,14.60
2022-12-01T10:49:10.912Z,14.90
2022-12-01T10:51:54.405Z,15.10
2022-12-01T10:54:23.767Z,14.70
2022-12-01T10:56:57.053Z,15.00
2022-12-01T10:59:31.933Z,15.00
2022-12-01T11:02:02.151Z,14.90
2022-12-01T11:04:42.530Z,15.50
2022-12-01T11:07:21.395Z,15.40
2022-12-01T11:10:15.578Z,16.10
2022-12-01T11:12:44.590Z,16.00
2022-12-01T11:15:23.605Z,16.30
2022-12-01T11:17:59.657Z,16.30
2022-12-01T11:20:31.669Z,16.40
2022-12-01T11:23:26.371Z,16.00
2022-12-01T11:26:07.684Z,15.70
2022-12-01T11:28:37.124Z,15.50
2022-12-01T11:31:08.449Z,14.70
2022-12-01T11:33:45.207Z,14.70
2022-12-01T11:36:26.508Z,14.50
2022-12-01T11:38:59.053Z,14.90
2022-12-01T11:41:34.219Z,14.60
2022-12-01T11:44:12.734Z,15.30
2022-12-01T11:46:55.788Z,15.20
2022-12-01T11:49:46.892Z,15.50
2022-12-01T11:52:23.814Z,15.20
2022-12-01T11:54:57.728Z,15.20
2022-12-01T11:57:34.124Z,15.50
2022-12-01T12:00:03.480Z,15.70
2022-12-01T12:02:43.612Z,15.50
2022-12-01T12:05:38.252Z,15.80
2022-12-01T12:08:16.702Z,15.50
2022-12-01T12:10:53.605Z,15.70
2022-12-01T12:13:44.521Z,15.50
2022-12-01T12:16:19.657Z,15.00
2022-12-01T12:19:06.436Z,15.30
2022-12-01T12:21:39.609Z,15.60
2022-12-01T12:24:24.233Z,15.10
2022-12-01T12:27:00.736Z,15.40
2022-12-01T12:29:43.904Z,15.60
2022-12-01T12:32:28.133Z,15.00
2022-12-01T12:35:05.124Z,14.30
2022-12-01T12:37:40.565Z,14.30
2022-12-01T12:40:23.518Z,14.40
2022-12-01T12:43:03.782Z,14.60
2022-12-01T12:45:43.534Z,14.60
2022-12-01T12:48:24.588Z,14.60
2022-12-01T12:51:01.456Z,14.30
2022-12-01T12:53:34.772Z,13.90
2022-12-01T12:56:06.656Z,14.20
2022-12-01T12:58:41.722Z,14.20
2022-12-01T13:01:17.605Z,14.20
2022-12-01T13:03:59.429Z,14.00
2022-12-01T13:06:34.927Z,13.80
2022-12-01T13:09:08.025Z,14.00
2022-12-01T13:11:49.326Z,14.30
2022-12-01T13:14:23.918Z,14.50
2022-12-01T13:16:54.987Z,14.60
2022-12-01T13:19:28.733Z,14.80
2022-12-01T13:21:59.467Z,14.60
2022-12-01T13:24:32.338Z,14.50
2022-12-01T13:27:03.582Z,14.50
2022-12-01T13:29:37.499Z,14.80
2022-12-01T13:32:31.403Z,15.50
2022-12-01T13:35:00.890Z,15.80
2022-12-01T13:37:32.664Z,15.40
2022-12-01T13:40:10.472Z,15.40
2022-12-01T13:42:41.060Z,15.10
2022-12-01T13:45:17.772Z,15.40
2022-12-01T13:47:54.552Z,15.50
2022-12-01T13:50:54.255Z,15.50
2022-12-01T13:53:31.096Z,15.60
2022-12-01T13:56:05.472Z,15.50
2022-12-01T13:58:44.874Z,15.50
2022-12-01T14:01:44.521Z,15.90
2022-12-01T14:04:30.355Z,15.90
2022-12-01T14:07:36.800Z,16.00
2022-12-01T14:10:23.544Z,16.20
2022-12-01T14:12:53.988Z,16.30
2022-12-01T14:15:31.419Z,16.30
2022-12-01T14:18:01.992Z,16.00
2022-12-01T14:20:33.495Z,16.00
2022-12-01T14:23:14.105Z,16.30
2022-12-01T14:26:06.279Z,16.00
2022-12-01T14:29:08.738Z,15.40
2022-12-01T14:32:13.541Z,15.10
2022-12-01T14:34:41.798Z,15.10
2022-12-01T14:37:14.590Z,15.10
2022-12-01T14:39:45.419Z,15.30
2022-12-01T14:42:55.291Z,15.40
2022-12-01T14:45:25.682Z,15.40
2022-12-01T14:48:03.246Z,15.60
2022-12-01T14:50:44.994Z,15.70
2022-12-01T14:53:22.143Z,15.50
2022-12-01T14:55:56.122Z,15.60
2022-12-01T14:58:28.222Z,15.60
2022-12-01T15:01:06.936Z,15.60
2022-12-01T15:03:39.395Z,15.20
2022-12-01T15:06:08.424Z,15.00
2022-12-01T15:08:49.115Z,14.80
2022-12-01T15:11:27.050Z,15.00
2022-12-01T15:13:57.942Z,15.40
2022-12-01T15:16:27.691Z,15.80
2022-12-01T15:18:55.754Z,15.70
2022-12-01T15:21:26.181Z,15.90
2022-12-01T15:24:00.225Z,15.50
2022-12-01T15:26:32.119Z,15.10
2022-12-01T15:29:16.762Z,15.00
2022-12-01T15:31:47.511Z,14.90
2022-12-01T15:34:18.057Z,14.80
2022-12-01T15:36:46.965Z,14.80
2022-12-01T15:39:17.127Z,15.20
2022-12-01T15:41:53.664Z,15.50
2022-12-01T15:44:29.212Z,15.80
2022-12-01T15:46:59.229Z,16.30
2022-12-01T15:49:29.746Z,16.30
2022-12-01T15:52:07.377Z,16.00
2022-12-01T15:54:37.804Z,15.60
2022-12-01T15:57:06.905Z,15.10
2022-12-01T15:59:40.028Z,15.10
2022-12-01T16:02:21.875Z,14.90
2022-12-01T16:04:50.772Z,14.60
2022-12-01T16:07:19.496Z,14.80
2022-12-01T16:09:57.888Z,14.70
2022-12-01T16:12:27.473Z,14.80
2022-12-01T16:15:04.137Z,14.90
2022-12-01T16:17:43.631Z,15.10
2022-12-01T16:20:22.290Z,15.50
2022-12-01T16:22:53.075Z,15.60
2022-12-01T16:25:29.139Z,16.10
2022-12-01T16:27:58.256Z,15.80
2022-12-01T16:30:33.384Z,15.50
2022-12-01T16:33:03.411Z,15.70
2022-12-01T16:35:33.772Z,16.00
2022-12-01T16:38:05.340Z,15.70
2022-12-01T16:40:34.143Z,15.70
2022-12-01T16:43:02.084Z,15.40
2022-12-01T16:45:34.129Z,15.10
2022-12-01T16:48:07.759Z,15.00
2022-12-01T16:50:37.951Z,15.70
2022-12-01T16:53:06.156Z,16.00
2022-12-01T16:55:40.058Z,16.20
2022-12-01T16:58:08.028Z,15.70
2022-12-01T17:00:37.564Z,15.70
2022-12-01T17:03:06.819Z,15.70
2022-12-01T17:05:35.319Z,15.50
2022-12-01T17:08:03.415Z,15.50
2022-12-01T17:10:31.477Z,15.70
2022-12-01T17:12:59.417Z,16.10
2022-12-01T17:15:27.359Z,15.70
2022-12-01T17:17:56.649Z,15.70
2022-12-01T17:20:25.628Z,15.90
2022-12-01T17:22:53.834Z,16.10
2022-12-01T17:25:21.932Z,15.90
2022-12-01T17:27:49.853Z,15.90
2022-12-01T17:30:18.214Z,16.20
2022-12-01T17:32:46.443Z,16.20
2022-12-01T17:35:16.025Z,16.10
2022-12-01T17:37:44.159Z,16.60
2022-12-01T17:40:14.731Z,16.20
2022-12-01T17:42:46.999Z,16.20
2022-12-01T17:45:18.949Z,16.00
2022-12-01T17:47:47.261Z,15.50
2022-12-01T17:50:17.152Z,15.50
2022-12-01T17:52:45.126Z,15.60
2022-12-01T17:55:13.110Z,15.10
2022-12-01T17:57:41.057Z,15.20
2022-12-01T18:00:10.264Z,15.20
2022-12-01T18:02:39.144Z,15.10
2022-12-01T18:05:08.063Z,15.40
2022-12-01T18:07:40.355Z,15.30
2022-12-01T18:10:08.775Z,15.10
2022-12-01T18:12:36.726Z,14.90
2022-12-01T18:15:05.642Z,15.00
2022-12-01T18:17:36.735Z,15.40
2022-12-01T18:20:05.269Z,15.50
2022-12-01T18:22:33.229Z,15.30
2022-12-01T18:25:02.503Z,15.30
2022-12-01T18:27:30.607Z,14.90
2022-12-01T18:29:58.533Z,14.60
2022-12-01T18:32:26.456Z,15.00
2022-12-01T18:34:54.582Z,15.00
2022-12-01T18:37:22.597Z,14.90
2022-12-01T18:39:50.642Z,14.80
2022-12-01T18:42:19.931Z,15.00
2022-12-01T18:44:48.110Z,14.90
2022-12-01T18:47:16.304Z,14.60
2022-12-01T18:49:44.260Z,14.70
2022-12-01T18:52:12.538Z,14.80
2022-12-01T18:54:40.505Z,15.00
2022-12-01T18:57:08.500Z,15.10
2022-12-01T18:59:39.090Z,14.60
2022-12-01T19:02:09.017Z,14.30
2022-12-01T19:04:37.104Z,14.40
2022-12-01T19:07:05.102Z,14.50
2022-12-01T19:09:33.150Z,14.80
2022-12-01T19:12:01.127Z,14.90
2022-12-01T19:14:30.174Z,15.00
2022-12-01T19:17:00.294Z,14.90
2022-12-01T19:19:30.831Z,14.80
2022-12-01T19:22:01.088Z,15.10
2022-12-01T19:24:29.135Z,15.00
2022-12-01T19:26:57.118Z,15.10
2022-12-01T19:29:25.866Z,15.40
2022-12-01T19:31:55.168Z,14.80
2022-12-01T19:34:25.800Z,14.70
2022-12-01T19:36:54.368Z,15.20
2022-12-01T19:39:22.461Z,15.40
2022-12-01T19:41:50.414Z,15.80
2022-12-01T19:44:18.455Z,15.90
2022-12-01T19:46:46.463Z,15.80
2022-12-01T19:49:16.097Z,16.20
2022-12-01T19:51:45.350Z,16.30
2022-12-01T19:54:16.161Z,16.40
2022-12-01T19:56:44.345Z,16.50
2022-12-01T19:59:14.253Z,16.40
2022-12-01T20:01:42.541Z,16.10
2022-12-01T20:04:10.618Z,16.10
2022-12-01T20:06:38.938Z,16.20
2022-12-01T20:09:09.368Z,16.00
2022-12-01T20:11:37.569Z,15.50
2022-12-01T20:14:08.286Z,15.40
2022-12-01T20:16:38.396Z,15.40
2022-12-01T20:19:07.368Z,15.70
2022-12-01T20:21:39.209Z,16.10
2022-12-01T20:24:11.980Z,16.20
2022-12-01T20:26:42.469Z,16.60
2022-12-01T20:29:11.930Z,16.30
2022-12-01T20:31:40.364Z,16.50
2022-12-01T20:34:16.950Z,16.70
2022-12-01T20:36:44.954Z,16.80
2022-12-01T20:39:15.636Z,16.60
2022-12-01T20:41:44.293Z,16.30
2022-12-01T20:44:14.990Z,16.10
2022-12-01T20:46:45.176Z,16.30
2022-12-01T20:49:17.354Z,16.20
2022-12-01T20:51:45.841Z,15.90
2022-12-01T20:54:27.919Z,15.90
2022-12-01T20:56:56.810Z,15.50
2022-12-01T20:59:24.982Z,15.40
2022-12-01T21:01:53.132Z,15.40
2022-12-01T21:04:21.170Z,15.60
2022-12-01T21:06:49.912Z,15.50
2022-12-01T21:09:19.306Z,15.50
2022-12-01T21:12:07.828Z,15.10
2022-12-01T21:14:38.227Z,14.80
2022-12-01T21:17:20.675Z,14.70
2022-12-01T21:19:54.265Z,14.80
2022-12-01T21:22:22.257Z,14.60
2022-12-01T21:24:52.883Z,14.90
2022-12-01T21:27:21.121Z,14.80
2022-12-01T21:29:50.406Z,15.30
2022-12-01T21:32:20.170Z,15.30
2022-12-01T21:34:49.157Z,15.30
2022-12-01T21:37:22.088Z,15.50
2022-12-01T21:39:52.495Z,15.20
2022-12-01T21:42:22.946Z,15.60
2022-12-01T21:44:51.176Z,16.00
2022-12-01T21:47:21.480Z,15.90
2022-12-01T21:49:52.402Z,15.60
2022-12-01T21:52:22.526Z,15.50
2022-12-01T21:54:52.692Z,15.50
2022-12-01T21:57:37.398Z,15.50
2022-12-01T22:00:27.435Z,15.20
2022-12-01T22:03:18.591Z,15.20
2022-12-01T22:06:13.468Z,14.70
2022-12-01T22:08:39.160Z,14.50
2022-12-01T22:11:15.828Z,14.70
2022-12-01T22:13:45.890Z,15.10
2022-12-01T22:16:16.767Z,15.70
2022-12-01T22:18:47.883Z,15.70
2022-12-01T22:21:35.969Z,15.40
2022-12-01T22:24:22.830Z,15.50
2022-12-01T22:26:58.519Z,15.60
2022-12-01T22:29:31.638Z,15.30
2022-12-01T22:32:32.875Z,15.20
2022-12-01T22:35:21.339Z,14.90
2022-12-01T22:37:51.108Z,14.80
2022-12-01T22:40:38.981Z,14.60
2022-12-01T22:43:31.937Z,14.50
2022-12-01T22:46:30.091Z,14.00
2022-12-01T22:48:59.099Z,13.60
2022-12-01T22:51:46.147Z,14.10
2022-12-01T22:54:28.721Z,14.10
2022-12-01T22:57:03.769Z,14.10
2022-12-01T22:59:36.746Z,13.80
2022-12-01T23:02:19.272Z,14.10
2022-12-01T23:04:49.988Z,14.10
2022-12-01T23:07:29.497Z,14.00
2022-12-01T23:10:01.664Z,14.60
2022-12-01T23:12:31.610Z,14.60
2022-12-01T23:15:16.862Z,14.60
2022-12-01T23:17:44.787Z,14.50
2022-12-01T23:20:31.812Z,14.10
2022-12-01T23:23:01.650Z,14.40
2022-12-01T23:25:31.603Z,14.80
2022-12-01T23:28:02.095Z,14.70
2022-12-01T23:30:32.464Z,14.80
2022-12-01T23:33:10.675Z,14.80
2022-12-01T23:35:46.393Z,14.30
2022-12-01T23:38:19.620Z,14.30
2022-12-01T23:40:48.744Z,14.70
2022-12-01T23:43:26.107Z,14.80
2022-12-01T23:46:03.956Z,15.00
2022-12-01T23:48:35.714Z,15.40
2022-12-01T23:51:04.398Z,15.20
2022-12-01T23:53:33.782Z,14.90
2022-12-01T23:56:06.912Z,14.50
2022-12-01T23:58:35.494Z,14.50
